createdAt,value
2023-05-15T00:01:30.673Z,6.55
2023-05-15T00:03:57.255Z,5.15
2023-05-15T00:06:25.280Z,5.37
2023-05-15T00:08:52.083Z,6.78
2023-05-15T00:11:18.636Z,5.63
2023-05-15T00:13:45.145Z,6.72
2023-05-15T00:16:11.995Z,6.78
2023-05-15T00:18:38.580Z,5.40
2023-05-15T00:21:05.227Z,10.02
2023-05-15T00:23:33.122Z,9.93
2023-05-15T00:25:59.938Z,5.90
2023-05-15T00:28:26.495Z,6.00
2023-05-15T00:30:53.161Z,6.33
2023-05-15T00:33:19.847Z,7.97
2023-05-15T00:35:46.572Z,5.93
2023-05-15T00:38:13.271Z,6.55
2023-05-15T00:40:42.948Z,6.63
2023-05-15T00:43:10.981Z,6.73
2023-05-15T00:45:39.652Z,7.30
2023-05-15T00:48:09.375Z,8.77
2023-05-15T00:50:36.962Z,8.70
2023-05-15T00:53:03.821Z,9.02
2023-05-15T00:55:32.156Z,6.93
2023-05-15T00:58:01.361Z,8.48
2023-05-15T01:00:28.507Z,7.85
2023-05-15T01:02:55.399Z,7.32
2023-05-15T01:05:22.103Z,6.45
2023-05-15T01:07:56.427Z,9.53
2023-05-15T01:10:23.076Z,6.18
2023-05-15T01:12:53.198Z,7.15
2023-05-15T01:15:21.408Z,8.82
2023-05-15T01:17:48.042Z,11.73
2023-05-15T01:20:18.543Z,11.23
2023-05-15T01:22:59.365Z,9.00
2023-05-15T01:25:49.750Z,6.97
2023-05-15T01:28:23.774Z,8.38
2023-05-15T01:30:52.056Z,11.27
2023-05-15T01:33:24.470Z,12.70
2023-05-15T01:35:57.990Z,11.45
2023-05-15T01:38:30.532Z,10.45
2023-05-15T01:41:02.584Z,20.00
2023-05-15T01:43:32.511Z,14.43
2023-05-15T01:45:59.356Z,20.73
2023-05-15T01:48:27.520Z,19.55
2023-05-15T01:50:58.328Z,24.88
2023-05-15T01:53:26.697Z,28.98
2023-05-15T01:55:53.975Z,26.30
2023-05-15T01:58:21.292Z,31.17
2023-05-15T02:00:50.577Z,27.85
2023-05-15T02:03:18.506Z,42.90
2023-05-15T02:05:46.727Z,35.05
2023-05-15T02:08:13.982Z,37.70
2023-05-15T02:10:41.134Z,42.43
2023-05-15T02:13:11.206Z,32.15
2023-05-15T02:15:38.596Z,38.15
2023-05-15T02:18:06.898Z,38.60
2023-05-15T02:20:33.695Z,38.70
2023-05-15T02:23:00.484Z,31.93
2023-05-15T02:25:38.521Z,36.97
2023-05-15T02:28:12.709Z,33.17
2023-05-15T02:30:46.346Z,26.92
2023-05-15T02:33:22.873Z,24.23
2023-05-15T02:35:54.787Z,19.97
2023-05-15T02:38:25.526Z,26.60
2023-05-15T02:40:55.011Z,31.45
2023-05-15T02:43:22.657Z,29.27
2023-05-15T02:45:50.063Z,31.85
2023-05-15T02:48:18.327Z,31.37
2023-05-15T02:50:44.959Z,25.05
2023-05-15T02:53:11.579Z,29.88
2023-05-15T02:55:38.379Z,30.33
2023-05-15T02:58:05.424Z,31.70
2023-05-15T03:00:32.057Z,31.80
2023-05-15T03:02:58.749Z,28.05
2023-05-15T03:05:27.246Z,36.35
2023-05-15T03:07:54.059Z,30.00
2023-05-15T03:10:20.666Z,29.73
2023-05-15T03:12:47.186Z,25.83
2023-05-15T03:15:13.791Z,28.20
2023-05-15T03:17:40.444Z,23.27
2023-05-15T03:20:08.091Z,21.58
2023-05-15T03:22:35.946Z,25.52
2023-05-15T03:25:03.063Z,26.97
2023-05-15T03:27:29.611Z,26.10
2023-05-15T03:29:56.585Z,26.92
2023-05-15T03:32:23.201Z,26.95
2023-05-15T03:34:49.816Z,31.42
2023-05-15T03:37:16.572Z,27.33
2023-05-15T03:39:44.666Z,30.80
2023-05-15T03:42:11.224Z,25.83
2023-05-15T03:44:38.085Z,25.85
2023-05-15T03:47:05.004Z,25.08
2023-05-15T03:49:31.631Z,27.67
2023-05-15T03:51:58.339Z,29.90
2023-05-15T03:54:24.960Z,30.17
2023-05-15T03:56:53.204Z,39.70
2023-05-15T03:59:19.923Z,35.40
2023-05-15T04:02:03.031Z,44.33
2023-05-15T04:04:31.408Z,41.97
2023-05-15T04:06:58.038Z,45.53
2023-05-15T04:09:24.607Z,46.25
2023-05-15T04:11:51.214Z,50.15
2023-05-15T04:14:19.121Z,45.87
2023-05-15T04:16:45.735Z,48.75
2023-05-15T04:19:12.428Z,48.15
2023-05-15T04:21:39.061Z,51.67
2023-05-15T04:24:07.245Z,52.75
2023-05-15T04:26:33.889Z,52.83
2023-05-15T04:29:04.575Z,61.63
2023-05-15T04:31:32.941Z,61.95
2023-05-15T04:33:59.759Z,56.53
2023-05-15T04:36:26.439Z,61.92
2023-05-15T04:38:53.059Z,60.07
2023-05-15T04:41:19.653Z,62.55
2023-05-15T04:43:49.360Z,61.10
2023-05-15T04:46:15.976Z,61.50
2023-05-15T04:49:31.889Z,65.05
2023-05-15T04:52:01.314Z,67.10
2023-05-15T04:54:40.033Z,57.83
2023-05-15T04:57:06.620Z,62.67
2023-05-15T04:59:33.217Z,63.92
2023-05-15T05:01:59.975Z,78.00
2023-05-15T05:04:28.022Z,75.67
2023-05-15T05:06:54.678Z,76.07
2023-05-15T05:09:21.330Z,78.07
2023-05-15T05:11:47.936Z,82.22
2023-05-15T05:14:15.173Z,80.07
2023-05-15T05:16:41.963Z,78.43
2023-05-15T05:19:08.543Z,87.22
2023-05-15T05:21:36.572Z,83.13
2023-05-15T05:24:03.428Z,83.53
2023-05-15T05:26:29.990Z,86.18
2023-05-15T05:28:56.537Z,84.47
2023-05-15T05:31:23.200Z,80.25
2023-05-15T05:33:49.848Z,81.50
2023-05-15T05:36:16.390Z,88.03
2023-05-15T05:38:44.508Z,84.32
2023-05-15T05:41:11.056Z,76.97
2023-05-15T05:43:37.606Z,80.00
2023-05-15T05:46:04.174Z,79.93
2023-05-15T05:48:30.718Z,80.07
2023-05-15T05:50:58.013Z,80.25
2023-05-15T05:53:24.545Z,76.57
2023-05-15T05:55:52.536Z,73.90
2023-05-15T05:58:25.648Z,79.65
2023-05-15T06:00:53.155Z,79.60
2023-05-15T06:03:20.218Z,73.38
2023-05-15T06:05:46.875Z,67.97
2023-05-15T06:08:13.374Z,67.68
2023-05-15T06:10:39.832Z,59.70
2023-05-15T06:13:07.816Z,50.72
2023-05-15T06:15:34.367Z,60.28
2023-05-15T06:18:00.856Z,64.97
2023-05-15T06:20:27.796Z,65.03
2023-05-15T06:22:54.415Z,62.58
2023-05-15T06:25:21.233Z,62.35
2023-05-15T06:27:47.696Z,59.92
2023-05-15T06:30:15.698Z,56.80
2023-05-15T06:32:42.321Z,54.65
2023-05-15T06:35:10.109Z,52.25
2023-05-15T06:37:37.038Z,67.03
2023-05-15T06:40:04.166Z,63.45
2023-05-15T06:42:30.620Z,69.00
2023-05-15T06:44:57.129Z,68.43
2023-05-15T06:47:25.222Z,75.68
2023-05-15T06:49:54.063Z,69.78
2023-05-15T06:52:20.697Z,66.82
2023-05-15T06:54:47.436Z,67.97
2023-05-15T06:57:14.046Z,71.10
2023-05-15T06:59:40.618Z,69.60
2023-05-15T07:02:07.553Z,67.85
2023-05-15T07:04:35.673Z,62.50
2023-05-15T07:07:02.362Z,61.63
2023-05-15T07:09:28.972Z,56.08
2023-05-15T07:11:55.530Z,61.35
2023-05-15T07:14:22.100Z,54.72
2023-05-15T07:16:48.762Z,54.30
2023-05-15T07:19:18.168Z,55.10
2023-05-15T07:21:48.938Z,49.85
2023-05-15T07:24:15.495Z,44.67
2023-05-15T07:26:54.225Z,38.88
2023-05-15T07:29:24.731Z,38.50
2023-05-15T07:31:51.336Z,37.97
2023-05-15T07:34:18.159Z,39.03
2023-05-15T07:36:46.116Z,48.25
2023-05-15T07:39:12.675Z,46.83
2023-05-15T07:41:39.281Z,44.55
2023-05-15T07:44:05.821Z,39.20
2023-05-15T07:46:33.234Z,45.20
2023-05-15T07:48:59.818Z,47.47
2023-05-15T07:51:26.727Z,49.67
2023-05-15T07:53:54.666Z,44.70
2023-05-15T07:56:21.382Z,39.63
2023-05-15T07:58:48.006Z,38.67
2023-05-15T08:01:14.632Z,34.72
2023-05-15T08:03:41.307Z,37.65
2023-05-15T08:06:07.989Z,30.48
2023-05-15T08:08:34.568Z,31.13
2023-05-15T08:11:02.733Z,32.10
2023-05-15T08:13:29.785Z,26.38
2023-05-15T08:15:56.337Z,30.38
2023-05-15T08:18:22.950Z,31.65
2023-05-15T08:20:49.552Z,26.40
2023-05-15T08:23:16.142Z,27.50
2023-05-15T08:25:42.698Z,30.48
2023-05-15T08:28:10.759Z,33.28
2023-05-15T08:30:37.423Z,34.13
2023-05-15T08:33:05.644Z,31.17
2023-05-15T08:35:32.395Z,29.73
2023-05-15T08:38:00.999Z,30.80
2023-05-15T08:43:03.709Z,26.15
2023-05-15T08:45:31.946Z,27.37
2023-05-15T08:47:59.005Z,26.95
2023-05-15T08:50:26.472Z,25.83
2023-05-15T08:52:55.528Z,25.20
2023-05-15T08:55:22.309Z,22.23
2023-05-15T08:57:49.189Z,25.70
2023-05-15T09:00:17.568Z,21.13
2023-05-15T09:02:45.653Z,24.45
2023-05-15T09:05:12.386Z,23.15
2023-05-15T09:07:39.467Z,22.70
2023-05-15T09:10:07.199Z,24.00
2023-05-15T09:12:34.588Z,22.58
2023-05-15T09:15:12.678Z,19.33
2023-05-15T09:17:39.746Z,24.00
2023-05-15T09:20:25.114Z,19.63
2023-05-15T09:22:51.733Z,19.13
2023-05-15T09:25:32.503Z,19.60
2023-05-15T09:27:59.646Z,17.55
2023-05-15T09:30:26.788Z,19.17
2023-05-15T09:32:53.602Z,19.30
2023-05-15T09:35:34.900Z,19.23
2023-05-15T09:38:03.718Z,17.95
2023-05-15T09:40:31.667Z,26.85
2023-05-15T09:42:58.564Z,21.08
2023-05-15T09:45:26.053Z,16.38
2023-05-15T09:47:53.200Z,22.33
2023-05-15T09:50:36.805Z,21.02
2023-05-15T09:53:04.416Z,15.25
2023-05-15T09:55:32.427Z,24.80
2023-05-15T09:58:06.176Z,17.25
2023-05-15T10:00:33.805Z,18.27
2023-05-15T10:03:02.000Z,16.33
2023-05-15T10:05:42.540Z,16.73
2023-05-15T10:08:11.719Z,16.52
2023-05-15T10:10:38.508Z,15.75
2023-05-15T10:13:07.789Z,13.20
2023-05-15T10:15:35.077Z,15.15
2023-05-15T10:18:04.564Z,13.05
2023-05-15T10:20:32.864Z,15.82
2023-05-15T10:23:03.104Z,16.70
2023-05-15T10:25:37.895Z,16.00
2023-05-15T10:28:09.938Z,13.00
2023-05-15T10:30:36.943Z,16.20
2023-05-15T10:33:05.612Z,16.23
2023-05-15T10:35:33.724Z,17.95
2023-05-15T10:38:03.580Z,14.37
2023-05-15T10:40:32.326Z,18.50
2023-05-15T10:43:00.280Z,21.52
2023-05-15T10:45:27.782Z,22.48
2023-05-15T10:47:55.042Z,18.98
2023-05-15T10:50:21.669Z,11.70
2023-05-15T10:52:51.022Z,13.73
2023-05-15T10:55:18.055Z,17.25
2023-05-15T10:57:47.181Z,13.57
2023-05-15T11:00:25.437Z,16.60
2023-05-15T11:02:52.766Z,16.93
2023-05-15T11:05:19.545Z,15.10
2023-05-15T11:08:24.937Z,13.40
2023-05-15T11:10:51.893Z,11.35
2023-05-15T11:13:20.034Z,13.10
2023-05-15T11:15:47.597Z,17.47
2023-05-15T11:18:14.877Z,13.02
2023-05-15T11:20:42.700Z,13.48
2023-05-15T11:23:09.692Z,16.00
2023-05-15T11:25:36.828Z,14.63
2023-05-15T11:28:04.260Z,14.13
2023-05-15T11:30:39.678Z,14.10
2023-05-15T11:33:08.054Z,19.50
2023-05-15T11:35:37.080Z,13.68
2023-05-15T11:38:05.225Z,15.18
2023-05-15T11:40:32.745Z,13.07
2023-05-15T11:43:01.772Z,11.60
2023-05-15T11:45:30.487Z,9.48
2023-05-15T11:48:00.534Z,10.48
2023-05-15T11:50:27.919Z,8.10
2023-05-15T11:52:54.903Z,11.50
2023-05-15T11:55:22.253Z,11.82
2023-05-15T11:57:49.065Z,9.40
2023-05-15T12:00:16.152Z,12.00
2023-05-15T12:02:42.808Z,14.63
2023-05-15T12:05:11.285Z,14.93
2023-05-15T12:07:38.726Z,10.10
2023-05-15T12:10:06.427Z,14.50
2023-05-15T12:12:35.470Z,11.35
2023-05-15T12:15:02.093Z,11.88
2023-05-15T12:17:28.651Z,12.60
2023-05-15T12:19:56.951Z,14.40
2023-05-15T12:22:24.899Z,8.80
2023-05-15T12:24:51.558Z,11.80
2023-05-15T12:27:18.485Z,9.90
2023-05-15T12:29:45.354Z,9.93
2023-05-15T12:32:12.382Z,12.50
2023-05-15T12:34:39.104Z,12.07
2023-05-15T12:37:05.700Z,13.07
2023-05-15T12:39:33.638Z,7.63
2023-05-15T12:42:00.288Z,8.67
2023-05-15T12:44:26.935Z,12.82
2023-05-15T12:46:54.128Z,12.93
2023-05-15T12:49:24.102Z,11.45
2023-05-15T12:51:50.640Z,10.80
2023-05-15T12:54:17.752Z,8.60
2023-05-15T12:56:47.323Z,9.82
2023-05-15T12:59:14.011Z,11.63
2023-05-15T13:01:41.265Z,11.90
2023-05-15T13:04:09.143Z,8.00
2023-05-15T13:06:46.321Z,8.17
2023-05-15T13:09:14.030Z,13.88
2023-05-15T13:11:44.850Z,7.80
2023-05-15T13:14:11.418Z,9.02
2023-05-15T13:16:38.115Z,8.23
2023-05-15T13:19:04.845Z,6.97
2023-05-15T13:21:31.545Z,9.15
2023-05-15T13:23:58.211Z,12.02
2023-05-15T13:26:24.852Z,9.55
2023-05-15T13:28:53.513Z,10.88
2023-05-15T13:31:20.273Z,9.40
2023-05-15T13:33:47.019Z,11.82
2023-05-15T13:36:13.659Z,8.40
2023-05-15T13:38:40.303Z,10.48
2023-05-15T13:41:06.859Z,12.15
2023-05-15T13:43:33.493Z,8.20
2023-05-15T13:46:01.434Z,8.73
2023-05-15T13:48:28.154Z,7.50
2023-05-15T13:50:55.116Z,7.70
2023-05-15T13:53:21.752Z,7.00
2023-05-15T13:55:48.376Z,10.67
2023-05-15T13:58:15.206Z,7.28
2023-05-15T14:00:43.452Z,13.65
2023-05-15T14:03:14.051Z,12.60
2023-05-15T14:05:41.844Z,15.10
2023-05-15T14:08:08.298Z,16.10
2023-05-15T14:10:36.027Z,12.02
2023-05-15T14:13:03.779Z,17.27
2023-05-15T14:15:30.474Z,14.65
2023-05-15T14:17:59.687Z,13.82
2023-05-15T14:20:27.962Z,16.47
2023-05-15T14:22:54.682Z,16.67
2023-05-15T14:25:21.259Z,16.85
2023-05-15T14:27:47.893Z,12.43
2023-05-15T14:30:17.316Z,16.00
2023-05-15T14:32:43.969Z,16.57
2023-05-15T14:35:10.567Z,13.43
2023-05-15T14:37:38.491Z,16.10
2023-05-15T14:40:09.130Z,13.52
2023-05-15T14:42:35.728Z,13.88
2023-05-15T14:45:02.527Z,15.93
2023-05-15T14:47:29.102Z,13.90
2023-05-15T14:49:55.788Z,14.23
2023-05-15T14:52:22.361Z,14.40
2023-05-15T14:55:00.735Z,16.95
2023-05-15T14:57:34.265Z,12.83
2023-05-15T15:00:00.823Z,14.57
2023-05-15T15:02:27.547Z,14.60
2023-05-15T15:04:54.158Z,11.07
2023-05-15T15:07:23.212Z,10.25
2023-05-15T15:09:51.177Z,12.47
2023-05-15T15:12:17.744Z,12.13
2023-05-15T15:14:44.336Z,11.82
2023-05-15T15:17:10.928Z,14.10
2023-05-15T15:19:37.494Z,12.48
2023-05-15T15:22:04.422Z,14.07
2023-05-15T15:24:30.997Z,12.32
2023-05-15T15:26:59.509Z,12.60
2023-05-15T15:29:28.924Z,17.05
2023-05-15T15:31:55.944Z,13.05
2023-05-15T15:34:22.612Z,12.20
2023-05-15T15:36:49.391Z,14.27
2023-05-15T15:39:16.279Z,14.25
2023-05-15T15:41:42.954Z,13.45
2023-05-15T15:44:11.176Z,15.18
2023-05-15T15:46:38.881Z,16.30
2023-05-15T15:49:07.203Z,18.73
2023-05-15T15:51:34.006Z,20.40
2023-05-15T15:54:00.726Z,23.17
2023-05-15T15:56:27.463Z,19.77
2023-05-15T15:58:54.227Z,18.00
2023-05-15T16:01:22.668Z,25.33
2023-05-15T16:03:49.657Z,25.15
2023-05-15T16:06:16.385Z,21.70
2023-05-15T16:08:42.994Z,23.48
2023-05-15T16:11:09.668Z,22.43
2023-05-15T16:13:36.239Z,20.55
2023-05-15T16:16:02.797Z,21.50
2023-05-15T16:18:30.761Z,19.42
2023-05-15T16:20:57.477Z,22.13
2023-05-15T16:23:24.260Z,20.03
2023-05-15T16:25:50.836Z,25.13
2023-05-15T16:28:17.497Z,20.50
2023-05-15T16:30:49.562Z,20.20
2023-05-15T16:33:16.693Z,21.15
2023-05-15T16:35:45.015Z,22.67
2023-05-15T16:38:11.599Z,20.33
2023-05-15T16:40:39.021Z,20.38
2023-05-15T16:43:05.614Z,23.38
2023-05-15T16:45:32.231Z,18.15
2023-05-15T16:47:58.905Z,17.63
2023-05-15T16:50:25.791Z,16.48
2023-05-15T16:52:54.112Z,16.48
2023-05-15T16:55:20.714Z,17.95
2023-05-15T16:57:47.458Z,17.67
2023-05-15T17:00:15.495Z,15.83
2023-05-15T17:02:42.366Z,19.67
2023-05-15T17:05:09.857Z,15.93
2023-05-15T17:07:36.655Z,17.42
2023-05-15T17:10:05.462Z,16.42
2023-05-15T17:12:32.323Z,18.23
2023-05-15T17:14:59.484Z,18.92
2023-05-15T17:17:26.485Z,18.10
2023-05-15T17:19:53.297Z,18.95
2023-05-15T17:22:20.794Z,19.75
2023-05-15T17:24:50.924Z,22.60
2023-05-15T17:27:20.144Z,19.48
2023-05-15T17:29:47.451Z,21.98
2023-05-15T17:32:14.401Z,20.98
2023-05-15T17:34:41.183Z,18.90
2023-05-15T17:37:08.705Z,21.97
2023-05-15T17:39:35.378Z,24.80
2023-05-15T17:42:01.969Z,24.55
2023-05-15T17:44:30.045Z,25.73
2023-05-15T17:46:59.020Z,25.55
2023-05-15T17:49:25.874Z,28.43
2023-05-15T17:51:52.673Z,23.88
2023-05-15T17:54:19.885Z,24.92
2023-05-15T17:56:46.552Z,25.48
2023-05-15T17:59:13.140Z,22.35
2023-05-15T18:01:41.365Z,21.33
2023-05-15T18:04:08.123Z,17.48
2023-05-15T18:06:35.285Z,12.50
2023-05-15T18:09:01.922Z,11.48
2023-05-15T18:11:28.632Z,11.30
2023-05-15T18:13:55.222Z,15.07
2023-05-15T18:16:22.090Z,11.65
2023-05-15T18:18:50.244Z,10.70
2023-05-15T18:21:17.264Z,11.25
2023-05-15T18:23:44.078Z,13.07
2023-05-15T18:26:10.815Z,11.23
2023-05-15T18:28:37.453Z,12.27
2023-05-15T18:31:04.140Z,10.93
2023-05-15T18:33:30.874Z,11.23
2023-05-15T18:35:59.033Z,14.13
2023-05-15T18:38:25.803Z,13.97
2023-05-15T18:40:52.485Z,12.00
2023-05-15T18:43:19.105Z,12.27
2023-05-15T18:45:45.811Z,12.77
2023-05-15T18:48:12.516Z,12.43
2023-05-15T18:50:39.362Z,13.50
2023-05-15T18:53:07.423Z,14.75
2023-05-15T18:55:34.226Z,13.73
2023-05-15T18:58:00.865Z,15.50
2023-05-15T19:00:37.986Z,15.07
2023-05-15T19:03:06.455Z,13.97
2023-05-15T19:05:33.373Z,16.58
2023-05-15T19:08:00.235Z,20.38
2023-05-15T19:10:28.411Z,14.65
2023-05-15T19:12:55.458Z,16.23
2023-05-15T19:15:22.452Z,13.57
2023-05-15T19:17:49.183Z,13.35
2023-05-15T19:20:15.925Z,14.75
2023-05-15T19:22:44.603Z,10.80
2023-05-15T19:25:11.272Z,12.55
2023-05-15T19:27:39.464Z,11.27
2023-05-15T19:30:07.589Z,11.80
2023-05-15T19:32:34.438Z,12.30
2023-05-15T19:35:01.388Z,12.70
2023-05-15T19:37:28.023Z,11.13
2023-05-15T19:39:54.772Z,12.87
2023-05-15T19:42:21.410Z,10.82
2023-05-15T19:44:49.397Z,11.50
2023-05-15T19:47:16.130Z,13.65
2023-05-15T19:49:42.771Z,14.68
2023-05-15T19:52:09.403Z,13.37
2023-05-15T19:54:36.020Z,13.75
2023-05-15T19:57:05.898Z,10.73
2023-05-15T19:59:32.745Z,12.20
2023-05-15T20:02:03.267Z,13.35
2023-05-15T20:04:30.079Z,7.17
2023-05-15T20:06:56.724Z,9.85
2023-05-15T20:09:23.386Z,9.95
2023-05-15T20:12:04.434Z,9.32
2023-05-15T20:14:32.716Z,9.77
2023-05-15T20:17:03.765Z,8.13
2023-05-15T20:19:33.480Z,10.55
2023-05-15T20:22:00.116Z,11.43
2023-05-15T20:24:26.733Z,13.50
2023-05-15T20:26:53.346Z,8.70
2023-05-15T20:29:19.971Z,7.17
2023-05-15T20:31:46.686Z,8.07
2023-05-15T20:34:14.781Z,7.07
2023-05-15T20:36:41.450Z,6.45
2023-05-15T20:39:08.025Z,8.02
2023-05-15T20:41:34.548Z,6.40
2023-05-15T20:44:01.143Z,6.63
2023-05-15T20:46:29.722Z,7.10
2023-05-15T20:48:56.939Z,7.75
2023-05-15T20:51:24.964Z,7.78
2023-05-15T20:53:51.642Z,8.57
2023-05-15T20:56:18.664Z,7.32
2023-05-15T20:58:46.055Z,8.40
2023-05-15T21:01:12.635Z,5.40
2023-05-15T21:03:39.284Z,7.35
2023-05-15T21:06:06.666Z,7.87
2023-05-15T21:08:34.813Z,7.82
2023-05-15T21:11:01.339Z,5.60
2023-05-15T21:13:28.684Z,9.05
2023-05-15T21:15:55.369Z,10.38
2023-05-15T21:18:22.048Z,6.57
2023-05-15T21:20:48.582Z,7.75
2023-05-15T21:23:15.142Z,8.43
2023-05-15T21:25:44.977Z,7.45
2023-05-15T21:28:11.521Z,10.85
2023-05-15T21:30:38.112Z,9.80
2023-05-15T21:33:04.729Z,7.97
2023-05-15T21:35:31.335Z,10.35
2023-05-15T21:37:59.476Z,5.95
2023-05-15T21:40:26.297Z,8.60
2023-05-15T21:42:54.241Z,8.07
2023-05-15T21:45:20.816Z,10.82
2023-05-15T21:47:47.416Z,11.05
2023-05-15T21:50:14.024Z,9.90
2023-05-15T21:52:40.593Z,9.38
2023-05-15T21:55:08.171Z,8.93
2023-05-15T21:57:34.723Z,13.40
2023-05-15T22:00:03.726Z,11.02
2023-05-15T22:02:30.388Z,9.27
2023-05-15T22:04:57.531Z,13.55
2023-05-15T22:07:24.092Z,10.27
2023-05-15T22:09:50.642Z,11.93
2023-05-15T22:12:17.362Z,10.70
2023-05-15T22:14:57.060Z,16.40
2023-05-15T22:17:26.246Z,11.73
2023-05-15T22:19:53.198Z,10.30
2023-05-15T22:22:20.366Z,7.13
2023-05-15T22:24:46.936Z,11.23
2023-05-15T22:27:13.840Z,11.00
2023-05-15T22:29:40.371Z,13.68
2023-05-15T22:32:07.514Z,8.53
2023-05-15T22:34:35.488Z,9.48
2023-05-15T22:37:02.061Z,12.30
2023-05-15T22:39:28.738Z,10.18
2023-05-15T22:41:55.284Z,8.73
2023-05-15T22:44:21.706Z,8.87
2023-05-15T22:46:48.289Z,8.75
2023-05-15T22:49:14.855Z,7.78
2023-05-15T22:51:42.793Z,10.85
2023-05-15T22:54:09.362Z,7.68
2023-05-15T22:56:35.986Z,6.30
2023-05-15T22:59:02.562Z,7.95
2023-05-15T23:01:29.207Z,9.55
2023-05-15T23:03:55.938Z,7.20
2023-05-15T23:06:22.570Z,9.63
2023-05-15T23:08:50.488Z,7.47
2023-05-15T23:11:17.244Z,8.57
2023-05-15T23:13:43.819Z,7.18
2023-05-15T23:16:10.627Z,9.02
2023-05-15T23:18:37.296Z,10.90
2023-05-15T23:21:03.885Z,9.67
2023-05-15T23:23:30.503Z,10.80
2023-05-15T23:25:58.407Z,9.70
2023-05-15T23:28:24.970Z,9.90
2023-05-15T23:30:52.695Z,11.18
2023-05-15T23:33:19.324Z,11.00
2023-05-15T23:35:45.916Z,10.75
2023-05-15T23:38:12.575Z,8.55
2023-05-15T23:40:39.360Z,9.77
2023-05-15T23:43:07.761Z,7.20
2023-05-15T23:45:34.302Z,7.13
2023-05-15T23:48:01.119Z,9.88
2023-05-15T23:50:28.011Z,9.18
2023-05-15T23:52:54.936Z,5.57
2023-05-15T23:55:21.577Z,6.82
2023-05-15T23:57:48.322Z,6.07
